sensor_id;sensor_type;location;lat;lon;timestamp;P1;durP1;ratioP1;P2;durP2;ratioP2
48361;SDS011;34510;51.888;5.670;2022-08-05T00:01:55;5.00;;;3.13;;
48361;SDS011;34510;51.888;5.670;2022-08-05T00:04:11;15.38;;;3.78;;
48361;SDS011;34510;51.888;5.670;2022-08-05T00:06:14;6.53;;;3.08;;
48361;SDS011;34510;51.888;5.670;2022-08-05T00:08:33;5.65;;;3.05;;
48361;SDS011;34510;51.888;5.670;2022-08-05T00:10:36;8.25;;;3.53;;
48361;SDS011;34510;51.888;5.670;2022-08-05T00:12:39;8.80;;;4.57;;
48361;SDS011;34510;51.888;5.670;2022-08-05T00:14:57;9.95;;;3.53;;
48361;SDS011;34510;51.888;5.670;2022-08-05T00:19:02;5.70;;;3.38;;
48361;SDS011;34510;51.888;5.670;2022-08-05T00:21:04;8.02;;;4.57;;
48361;SDS011;34510;51.888;5.670;2022-08-05T00:23:08;6.43;;;3.30;;
48361;SDS011;34510;51.888;5.670;2022-08-05T00:25:13;9.50;;;3.42;;
48361;SDS011;34510;51.888;5.670;2022-08-05T00:27:16;8.27;;;3.78;;
48361;SDS011;34510;51.888;5.670;2022-08-05T00:29:19;6.05;;;3.60;;
48361;SDS011;34510;51.888;5.670;2022-08-05T00:31:25;5.90;;;3.35;;
48361;SDS011;34510;51.888;5.670;2022-08-05T00:33:47;5.07;;;3.25;;
48361;SDS011;34510;51.888;5.670;2022-08-05T00:36:09;7.68;;;3.17;;
48361;SDS011;34510;51.888;5.670;2022-08-05T00:38:30;10.80;;;4.35;;
48361;SDS011;34510;51.888;5.670;2022-08-05T00:40:44;12.48;;;4.53;;
48361;SDS011;34510;51.888;5.670;2022-08-05T00:42:54;13.68;;;3.60;;
48361;SDS011;34510;51.888;5.670;2022-08-05T00:44:57;8.75;;;3.40;;
48361;SDS011;34510;51.888;5.670;2022-08-05T00:46:59;12.55;;;3.45;;
48361;SDS011;34510;51.888;5.670;2022-08-05T00:49:06;9.52;;;4.13;;
48361;SDS011;34510;51.888;5.670;2022-08-05T00:51:08;7.57;;;3.40;;
48361;SDS011;34510;51.888;5.670;2022-08-05T00:53:30;8.98;;;3.80;;
48361;SDS011;34510;51.888;5.670;2022-08-05T00:55:51;8.38;;;3.58;;
48361;SDS011;34510;51.888;5.670;2022-08-05T00:57:53;9.00;;;3.53;;
48361;SDS011;34510;51.888;5.670;2022-08-05T00:59:59;13.27;;;3.90;;
48361;SDS011;34510;51.888;5.670;2022-08-05T01:02:00;7.53;;;3.72;;
48361;SDS011;34510;51.888;5.670;2022-08-05T01:04:02;6.85;;;3.22;;
48361;SDS011;34510;51.888;5.670;2022-08-05T01:06:14;6.05;;;3.22;;
48361;SDS011;34510;51.888;5.670;2022-08-05T01:08:17;10.48;;;3.28;;
48361;SDS011;34510;51.888;5.670;2022-08-05T01:10:42;9.60;;;3.40;;
48361;SDS011;34510;51.888;5.670;2022-08-05T01:12:54;9.23;;;3.33;;
48361;SDS011;34510;51.888;5.670;2022-08-05T01:15:13;10.95;;;3.28;;
48361;SDS011;34510;51.888;5.670;2022-08-05T01:17:38;6.60;;;4.30;;
48361;SDS011;34510;51.888;5.670;2022-08-05T01:19:57;6.45;;;2.92;;
48361;SDS011;34510;51.888;5.670;2022-08-05T01:22:19;5.68;;;3.63;;
48361;SDS011;34510;51.888;5.670;2022-08-05T01:26:52;8.55;;;3.10;;
48361;SDS011;34510;51.888;5.670;2022-08-05T01:29:26;10.65;;;3.60;;
48361;SDS011;34510;51.888;5.670;2022-08-05T01:31:39;13.70;;;3.00;;
48361;SDS011;34510;51.888;5.670;2022-08-05T01:33:46;11.05;;;3.92;;
48361;SDS011;34510;51.888;5.670;2022-08-05T01:35:57;12.15;;;3.83;;
48361;SDS011;34510;51.888;5.670;2022-08-05T01:38:05;12.38;;;3.47;;
48361;SDS011;34510;51.888;5.670;2022-08-05T01:40:25;7.95;;;3.03;;
48361;SDS011;34510;51.888;5.670;2022-08-05T01:42:29;8.68;;;3.58;;
48361;SDS011;34510;51.888;5.670;2022-08-05T01:44:31;6.95;;;3.42;;
48361;SDS011;34510;51.888;5.670;2022-08-05T01:46:35;7.45;;;3.28;;
48361;SDS011;34510;51.888;5.670;2022-08-05T01:48:46;7.03;;;3.47;;
48361;SDS011;34510;51.888;5.670;2022-08-05T01:50:50;9.32;;;4.07;;
48361;SDS011;34510;51.888;5.670;2022-08-05T01:52:53;8.07;;;2.97;;
48361;SDS011;34510;51.888;5.670;2022-08-05T01:55:01;7.18;;;3.05;;
48361;SDS011;34510;51.888;5.670;2022-08-05T01:57:07;8.43;;;3.42;;
48361;SDS011;34510;51.888;5.670;2022-08-05T01:59:30;6.63;;;3.97;;
48361;SDS011;34510;51.888;5.670;2022-08-05T02:01:35;5.70;;;3.67;;
48361;SDS011;34510;51.888;5.670;2022-08-05T02:03:42;9.73;;;3.78;;
48361;SDS011;34510;51.888;5.670;2022-08-05T02:05:46;7.43;;;3.80;;
48361;SDS011;34510;51.888;5.670;2022-08-05T02:07:53;7.20;;;3.97;;
48361;SDS011;34510;51.888;5.670;2022-08-05T02:10:02;13.13;;;4.03;;
48361;SDS011;34510;51.888;5.670;2022-08-05T02:12:14;13.65;;;3.50;;
48361;SDS011;34510;51.888;5.670;2022-08-05T02:14:46;8.48;;;3.58;;
48361;SDS011;34510;51.888;5.670;2022-08-05T02:16:54;9.30;;;3.88;;
48361;SDS011;34510;51.888;5.670;2022-08-05T02:19:04;9.07;;;3.97;;
48361;SDS011;34510;51.888;5.670;2022-08-05T02:23:51;7.60;;;4.05;;
48361;SDS011;34510;51.888;5.670;2022-08-05T02:25:56;7.93;;;4.22;;
48361;SDS011;34510;51.888;5.670;2022-08-05T02:28:03;7.88;;;3.50;;
48361;SDS011;34510;51.888;5.670;2022-08-05T02:30:09;13.52;;;4.30;;
48361;SDS011;34510;51.888;5.670;2022-08-05T02:32:14;13.23;;;4.50;;
48361;SDS011;34510;51.888;5.670;2022-08-05T02:34:30;11.15;;;3.00;;
48361;SDS011;34510;51.888;5.670;2022-08-05T02:36:35;16.52;;;4.97;;
48361;SDS011;34510;51.888;5.670;2022-08-05T02:38:45;12.98;;;4.05;;
48361;SDS011;34510;51.888;5.670;2022-08-05T02:40:54;15.40;;;4.30;;
48361;SDS011;34510;51.888;5.670;2022-08-05T02:42:57;18.10;;;4.72;;
48361;SDS011;34510;51.888;5.670;2022-08-05T02:45:00;9.57;;;3.65;;
48361;SDS011;34510;51.888;5.670;2022-08-05T02:47:04;9.10;;;4.10;;
48361;SDS011;34510;51.888;5.670;2022-08-05T02:49:08;8.15;;;3.90;;
48361;SDS011;34510;51.888;5.670;2022-08-05T02:51:12;9.93;;;4.00;;
48361;SDS011;34510;51.888;5.670;2022-08-05T02:53:15;10.48;;;4.13;;
48361;SDS011;34510;51.888;5.670;2022-08-05T02:55:19;8.27;;;3.75;;
48361;SDS011;34510;51.888;5.670;2022-08-05T03:00:05;10.38;;;3.90;;
48361;SDS011;34510;51.888;5.670;2022-08-05T03:02:10;11.20;;;4.22;;
48361;SDS011;34510;51.888;5.670;2022-08-05T03:04:14;5.80;;;4.47;;
48361;SDS011;34510;51.888;5.670;2022-08-05T03:06:16;8.20;;;3.53;;
48361;SDS011;34510;51.888;5.670;2022-08-05T03:08:38;7.35;;;3.35;;
48361;SDS011;34510;51.888;5.670;2022-08-05T03:10:43;10.23;;;3.47;;
48361;SDS011;34510;51.888;5.670;2022-08-05T03:13:12;12.23;;;3.92;;
48361;SDS011;34510;51.888;5.670;2022-08-05T03:15:17;8.23;;;4.10;;
48361;SDS011;34510;51.888;5.670;2022-08-05T03:17:20;14.38;;;5.55;;
48361;SDS011;34510;51.888;5.670;2022-08-05T03:19:23;7.72;;;4.25;;
48361;SDS011;34510;51.888;5.670;2022-08-05T03:21:36;10.27;;;5.03;;
48361;SDS011;34510;51.888;5.670;2022-08-05T03:23:50;14.45;;;4.32;;
48361;SDS011;34510;51.888;5.670;2022-08-05T03:25:52;9.63;;;3.78;;
48361;SDS011;34510;51.888;5.670;2022-08-05T03:28:14;8.25;;;3.97;;
48361;SDS011;34510;51.888;5.670;2022-08-05T03:30:19;12.20;;;4.18;;
48361;SDS011;34510;51.888;5.670;2022-08-05T03:32:33;16.75;;;3.72;;
48361;SDS011;34510;51.888;5.670;2022-08-05T03:34:37;6.60;;;3.63;;
48361;SDS011;34510;51.888;5.670;2022-08-05T03:36:40;10.52;;;3.85;;
48361;SDS011;34510;51.888;5.670;2022-08-05T03:38:41;13.52;;;3.88;;
48361;SDS011;34510;51.888;5.670;2022-08-05T03:40:53;11.03;;;3.47;;
48361;SDS011;34510;51.888;5.670;2022-08-05T03:42:58;9.48;;;3.20;;
48361;SDS011;34510;51.888;5.670;2022-08-05T03:45:20;8.75;;;3.83;;
48361;SDS011;34510;51.888;5.670;2022-08-05T03:47:24;8.05;;;3.58;;
48361;SDS011;34510;51.888;5.670;2022-08-05T03:49:30;7.70;;;3.13;;
48361;SDS011;34510;51.888;5.670;2022-08-05T03:56:42;10.93;;;3.42;;
48361;SDS011;34510;51.888;5.670;2022-08-05T03:58:46;10.10;;;4.43;;
48361;SDS011;34510;51.888;5.670;2022-08-05T04:00:51;10.38;;;3.40;;
48361;SDS011;34510;51.888;5.670;2022-08-05T04:02:57;13.68;;;4.05;;
48361;SDS011;34510;51.888;5.670;2022-08-05T04:05:02;5.88;;;3.90;;
48361;SDS011;34510;51.888;5.670;2022-08-05T04:07:10;11.35;;;4.28;;
48361;SDS011;34510;51.888;5.670;2022-08-05T04:09:13;11.13;;;4.13;;
48361;SDS011;34510;51.888;5.670;2022-08-05T04:11:26;6.50;;;3.67;;
48361;SDS011;34510;51.888;5.670;2022-08-05T04:13:48;6.65;;;3.83;;
48361;SDS011;34510;51.888;5.670;2022-08-05T04:15:53;9.35;;;4.05;;
48361;SDS011;34510;51.888;5.670;2022-08-05T04:18:05;8.90;;;3.13;;
48361;SDS011;34510;51.888;5.670;2022-08-05T04:20:21;11.98;;;3.92;;
48361;SDS011;34510;51.888;5.670;2022-08-05T04:22:24;8.30;;;3.65;;
48361;SDS011;34510;51.888;5.670;2022-08-05T04:24:27;12.32;;;3.47;;
48361;SDS011;34510;51.888;5.670;2022-08-05T04:26:29;11.15;;;3.60;;
48361;SDS011;34510;51.888;5.670;2022-08-05T04:28:33;9.73;;;4.45;;
48361;SDS011;34510;51.888;5.670;2022-08-05T04:30:35;8.25;;;5.03;;
48361;SDS011;34510;51.888;5.670;2022-08-05T04:32:37;7.28;;;3.97;;
48361;SDS011;34510;51.888;5.670;2022-08-05T04:34:42;6.82;;;4.25;;
48361;SDS011;34510;51.888;5.670;2022-08-05T04:36:44;9.85;;;3.88;;
48361;SDS011;34510;51.888;5.670;2022-08-05T04:38:50;8.70;;;3.40;;
48361;SDS011;34510;51.888;5.670;2022-08-05T04:40:57;9.27;;;3.10;;
48361;SDS011;34510;51.888;5.670;2022-08-05T04:42:59;9.60;;;3.78;;
48361;SDS011;34510;51.888;5.670;2022-08-05T04:45:00;12.23;;;4.75;;
48361;SDS011;34510;51.888;5.670;2022-08-05T04:47:03;10.80;;;3.92;;
48361;SDS011;34510;51.888;5.670;2022-08-05T04:49:10;8.73;;;3.70;;
48361;SDS011;34510;51.888;5.670;2022-08-05T04:51:15;5.25;;;3.33;;
48361;SDS011;34510;51.888;5.670;2022-08-05T04:53:18;10.52;;;3.63;;
48361;SDS011;34510;51.888;5.670;2022-08-05T04:55:22;9.38;;;3.95;;
48361;SDS011;34510;51.888;5.670;2022-08-05T04:57:44;7.53;;;3.50;;
48361;SDS011;34510;51.888;5.670;2022-08-05T04:59:51;10.10;;;3.92;;
48361;SDS011;34510;51.888;5.670;2022-08-05T05:01:53;9.00;;;3.83;;
48361;SDS011;34510;51.888;5.670;2022-08-05T05:04:09;11.45;;;5.82;;
48361;SDS011;34510;51.888;5.670;2022-08-05T05:06:11;12.00;;;4.10;;
48361;SDS011;34510;51.888;5.670;2022-08-05T05:08:33;20.33;;;5.90;;
48361;SDS011;34510;51.888;5.670;2022-08-05T05:10:44;15.30;;;4.60;;
48361;SDS011;34510;51.888;5.670;2022-08-05T05:12:56;14.75;;;4.78;;
48361;SDS011;34510;51.888;5.670;2022-08-05T05:14:59;26.88;;;5.88;;
48361;SDS011;34510;51.888;5.670;2022-08-05T05:17:05;21.67;;;4.63;;
48361;SDS011;34510;51.888;5.670;2022-08-05T05:19:09;12.68;;;5.88;;
48361;SDS011;34510;51.888;5.670;2022-08-05T05:21:27;10.20;;;3.97;;
48361;SDS011;34510;51.888;5.670;2022-08-05T05:23:33;14.60;;;3.92;;
48361;SDS011;34510;51.888;5.670;2022-08-05T05:25:55;22.85;;;4.53;;
48361;SDS011;34510;51.888;5.670;2022-08-05T05:27:57;18.08;;;5.75;;
48361;SDS011;34510;51.888;5.670;2022-08-05T05:29:59;19.20;;;4.95;;
48361;SDS011;34510;51.888;5.670;2022-08-05T05:32:05;16.85;;;4.30;;
48361;SDS011;34510;51.888;5.670;2022-08-05T05:34:12;16.25;;;4.47;;
48361;SDS011;34510;51.888;5.670;2022-08-05T05:36:16;26.92;;;5.05;;
48361;SDS011;34510;51.888;5.670;2022-08-05T05:38:20;12.80;;;4.57;;
48361;SDS011;34510;51.888;5.670;2022-08-05T05:40:28;10.73;;;3.75;;
48361;SDS011;34510;51.888;5.670;2022-08-05T05:42:32;17.35;;;6.40;;
48361;SDS011;34510;51.888;5.670;2022-08-05T05:44:35;19.33;;;6.22;;
48361;SDS011;34510;51.888;5.670;2022-08-05T05:46:46;9.70;;;4.00;;
48361;SDS011;34510;51.888;5.670;2022-08-05T05:48:51;15.60;;;4.22;;
48361;SDS011;34510;51.888;5.670;2022-08-05T05:50:53;11.27;;;4.53;;
48361;SDS011;34510;51.888;5.670;2022-08-05T05:52:55;12.45;;;4.75;;
48361;SDS011;34510;51.888;5.670;2022-08-05T05:57:01;16.38;;;5.25;;
48361;SDS011;34510;51.888;5.670;2022-08-05T05:59:05;19.13;;;6.20;;
48361;SDS011;34510;51.888;5.670;2022-08-05T06:01:08;9.27;;;4.15;;
48361;SDS011;34510;51.888;5.670;2022-08-05T06:03:13;10.88;;;4.25;;
48361;SDS011;34510;51.888;5.670;2022-08-05T06:05:35;11.02;;;3.88;;
48361;SDS011;34510;51.888;5.670;2022-08-05T06:07:37;20.23;;;4.63;;
48361;SDS011;34510;51.888;5.670;2022-08-05T06:09:42;14.77;;;4.85;;
48361;SDS011;34510;51.888;5.670;2022-08-05T06:12:02;10.75;;;4.00;;
48361;SDS011;34510;51.888;5.670;2022-08-05T06:14:04;8.15;;;3.05;;
48361;SDS011;34510;51.888;5.670;2022-08-05T06:16:05;10.27;;;4.65;;
48361;SDS011;34510;51.888;5.670;2022-08-05T06:18:27;9.90;;;3.67;;
48361;SDS011;34510;51.888;5.670;2022-08-05T06:20:32;8.25;;;3.30;;
48361;SDS011;34510;51.888;5.670;2022-08-05T06:22:35;7.55;;;3.60;;
48361;SDS011;34510;51.888;5.670;2022-08-05T06:24:41;13.82;;;3.47;;
48361;SDS011;34510;51.888;5.670;2022-08-05T06:26:49;9.32;;;3.30;;
48361;SDS011;34510;51.888;5.670;2022-08-05T06:28:53;8.35;;;3.17;;
48361;SDS011;34510;51.888;5.670;2022-08-05T06:30:55;24.75;;;4.30;;
48361;SDS011;34510;51.888;5.670;2022-08-05T06:32:57;21.48;;;3.72;;
48361;SDS011;34510;51.888;5.670;2022-08-05T06:34:59;20.52;;;4.60;;
48361;SDS011;34510;51.888;5.670;2022-08-05T06:37:06;8.40;;;4.20;;
48361;SDS011;34510;51.888;5.670;2022-08-05T06:39:08;9.13;;;3.58;;
48361;SDS011;34510;51.888;5.670;2022-08-05T06:41:10;4.03;;;2.53;;
48361;SDS011;34510;51.888;5.670;2022-08-05T06:43:13;9.15;;;3.35;;
48361;SDS011;34510;51.888;5.670;2022-08-05T06:45:35;5.80;;;3.13;;
48361;SDS011;34510;51.888;5.670;2022-08-05T06:47:57;15.65;;;3.00;;
48361;SDS011;34510;51.888;5.670;2022-08-05T06:50:18;12.90;;;2.78;;
48361;SDS011;34510;51.888;5.670;2022-08-05T06:52:20;6.10;;;2.70;;
48361;SDS011;34510;51.888;5.670;2022-08-05T06:54:40;10.52;;;3.45;;
48361;SDS011;34510;51.888;5.670;2022-08-05T06:56:42;9.15;;;2.63;;
48361;SDS011;34510;51.888;5.670;2022-08-05T06:59:04;7.57;;;3.03;;
48361;SDS011;34510;51.888;5.670;2022-08-05T07:01:10;5.88;;;2.72;;
48361;SDS011;34510;51.888;5.670;2022-08-05T07:03:13;6.32;;;2.80;;
48361;SDS011;34510;51.888;5.670;2022-08-05T07:05:17;6.00;;;2.58;;
48361;SDS011;34510;51.888;5.670;2022-08-05T07:07:20;5.95;;;2.90;;
48361;SDS011;34510;51.888;5.670;2022-08-05T07:09:35;10.50;;;3.22;;
48361;SDS011;34510;51.888;5.670;2022-08-05T07:11:43;12.75;;;3.20;;
48361;SDS011;34510;51.888;5.670;2022-08-05T07:13:52;12.00;;;2.70;;
48361;SDS011;34510;51.888;5.670;2022-08-05T07:16:17;8.63;;;2.40;;
48361;SDS011;34510;51.888;5.670;2022-08-05T07:18:58;4.63;;;3.03;;
48361;SDS011;34510;51.888;5.670;2022-08-05T07:20:59;4.47;;;2.22;;
48361;SDS011;34510;51.888;5.670;2022-08-05T07:23:06;5.25;;;2.10;;
48361;SDS011;34510;51.888;5.670;2022-08-05T07:25:07;7.53;;;2.35;;
48361;SDS011;34510;51.888;5.670;2022-08-05T07:27:29;11.63;;;2.13;;
48361;SDS011;34510;51.888;5.670;2022-08-05T07:29:52;3.28;;;2.42;;
48361;SDS011;34510;51.888;5.670;2022-08-05T07:32:17;6.07;;;2.10;;
48361;SDS011;34510;51.888;5.670;2022-08-05T07:34:26;10.80;;;2.25;;
48361;SDS011;34510;51.888;5.670;2022-08-05T07:36:29;4.28;;;2.42;;
48361;SDS011;34510;51.888;5.670;2022-08-05T07:38:31;9.63;;;2.65;;
48361;SDS011;34510;51.888;5.670;2022-08-05T07:40:44;4.45;;;2.10;;
48361;SDS011;34510;51.888;5.670;2022-08-05T07:42:56;6.43;;;2.40;;
48361;SDS011;34510;51.888;5.670;2022-08-05T07:44:59;3.80;;;2.30;;
48361;SDS011;34510;51.888;5.670;2022-08-05T07:47:01;4.32;;;1.85;;
48361;SDS011;34510;51.888;5.670;2022-08-05T07:49:08;11.80;;;2.63;;
48361;SDS011;34510;51.888;5.670;2022-08-05T07:51:10;9.30;;;2.67;;
48361;SDS011;34510;51.888;5.670;2022-08-05T07:53:31;7.45;;;2.38;;
48361;SDS011;34510;51.888;5.670;2022-08-05T07:55:51;10.48;;;3.30;;
48361;SDS011;34510;51.888;5.670;2022-08-05T07:58:13;1.95;;;1.63;;
48361;SDS011;34510;51.888;5.670;2022-08-05T08:00:34;4.95;;;2.05;;
48361;SDS011;34510;51.888;5.670;2022-08-05T08:02:36;2.60;;;1.80;;
48361;SDS011;34510;51.888;5.670;2022-08-05T08:04:58;4.13;;;1.90;;
48361;SDS011;34510;51.888;5.670;2022-08-05T08:07:00;4.85;;;1.90;;
48361;SDS011;34510;51.888;5.670;2022-08-05T08:09:07;7.38;;;2.28;;
48361;SDS011;34510;51.888;5.670;2022-08-05T08:11:09;4.07;;;2.65;;
48361;SDS011;34510;51.888;5.670;2022-08-05T08:13:16;3.25;;;2.28;;
48361;SDS011;34510;51.888;5.670;2022-08-05T08:15:29;8.98;;;2.83;;
48361;SDS011;34510;51.888;5.670;2022-08-05T08:17:51;8.40;;;2.15;;
48361;SDS011;34510;51.888;5.670;2022-08-05T08:19:56;6.93;;;2.33;;
48361;SDS011;34510;51.888;5.670;2022-08-05T08:22:23;4.15;;;2.47;;
48361;SDS011;34510;51.888;5.670;2022-08-05T08:24:28;9.77;;;2.33;;
48361;SDS011;34510;51.888;5.670;2022-08-05T08:26:51;4.78;;;2.72;;
48361;SDS011;34510;51.888;5.670;2022-08-05T08:28:52;9.02;;;2.63;;
48361;SDS011;34510;51.888;5.670;2022-08-05T08:31:02;7.97;;;3.53;;
48361;SDS011;34510;51.888;5.670;2022-08-05T08:33:08;7.18;;;2.60;;
48361;SDS011;34510;51.888;5.670;2022-08-05T08:35:17;6.43;;;2.28;;
48361;SDS011;34510;51.888;5.670;2022-08-05T08:37:19;10.25;;;2.13;;
48361;SDS011;34510;51.888;5.670;2022-08-05T08:39:28;2.95;;;1.58;;
48361;SDS011;34510;51.888;5.670;2022-08-05T08:41:31;2.83;;;1.35;;
48361;SDS011;34510;51.888;5.670;2022-08-05T08:43:54;4.35;;;1.70;;
48361;SDS011;34510;51.888;5.670;2022-08-05T08:46:17;7.50;;;1.80;;
48361;SDS011;34510;51.888;5.670;2022-08-05T08:48:20;3.97;;;1.75;;
48361;SDS011;34510;51.888;5.670;2022-08-05T08:50:45;4.07;;;1.80;;
48361;SDS011;34510;51.888;5.670;2022-08-05T08:53:09;10.20;;;2.95;;
48361;SDS011;34510;51.888;5.670;2022-08-05T08:55:13;2.67;;;1.88;;
48361;SDS011;34510;51.888;5.670;2022-08-05T08:57:35;1.83;;;1.40;;
48361;SDS011;34510;51.888;5.670;2022-08-05T08:59:57;5.38;;;2.78;;
48361;SDS011;34510;51.888;5.670;2022-08-05T09:02:00;5.07;;;1.60;;
48361;SDS011;34510;51.888;5.670;2022-08-05T09:04:09;2.33;;;1.20;;
48361;SDS011;34510;51.888;5.670;2022-08-05T09:08:17;3.85;;;1.02;;
48361;SDS011;34510;51.888;5.670;2022-08-05T09:10:27;3.75;;;2.05;;
48361;SDS011;34510;51.888;5.670;2022-08-05T09:12:30;1.90;;;1.00;;
48361;SDS011;34510;51.888;5.670;2022-08-05T09:14:34;2.92;;;1.15;;
48361;SDS011;34510;51.888;5.670;2022-08-05T09:16:58;1.83;;;0.90;;
48361;SDS011;34510;51.888;5.670;2022-08-05T09:19:01;5.55;;;1.15;;
48361;SDS011;34510;51.888;5.670;2022-08-05T09:21:07;2.22;;;0.73;;
48361;SDS011;34510;51.888;5.670;2022-08-05T09:23:21;1.80;;;1.30;;
48361;SDS011;34510;51.888;5.670;2022-08-05T09:25:27;1.67;;;1.58;;
48361;SDS011;34510;51.888;5.670;2022-08-05T09:27:49;1.63;;;1.05;;
48361;SDS011;34510;51.888;5.670;2022-08-05T09:30:06;1.80;;;1.02;;
48361;SDS011;34510;51.888;5.670;2022-08-05T09:32:17;5.93;;;1.63;;
48361;SDS011;34510;51.888;5.670;2022-08-05T09:34:53;3.30;;;1.67;;
48361;SDS011;34510;51.888;5.670;2022-08-05T09:36:56;7.22;;;2.45;;
48361;SDS011;34510;51.888;5.670;2022-08-05T09:39:02;2.65;;;1.10;;
48361;SDS011;34510;51.888;5.670;2022-08-05T09:41:22;4.97;;;1.00;;
48361;SDS011;34510;51.888;5.670;2022-08-05T09:43:31;4.22;;;0.68;;
48361;SDS011;34510;51.888;5.670;2022-08-05T09:45:42;1.63;;;1.42;;
48361;SDS011;34510;51.888;5.670;2022-08-05T09:50:36;1.10;;;0.70;;
48361;SDS011;34510;51.888;5.670;2022-08-05T09:52:45;2.88;;;1.05;;
48361;SDS011;34510;51.888;5.670;2022-08-05T09:54:54;5.35;;;0.88;;
48361;SDS011;34510;51.888;5.670;2022-08-05T09:59:46;2.55;;;1.30;;
48361;SDS011;34510;51.888;5.670;2022-08-05T10:01:51;0.90;;;0.90;;
48361;SDS011;34510;51.888;5.670;2022-08-05T10:04:00;1.75;;;1.20;;
48361;SDS011;34510;51.888;5.670;2022-08-05T10:06:10;3.17;;;1.45;;
48361;SDS011;34510;51.888;5.670;2022-08-05T10:08:16;1.88;;;0.90;;
48361;SDS011;34510;51.888;5.670;2022-08-05T10:10:44;11.83;;;8.93;;
48361;SDS011;34510;51.888;5.670;2022-08-05T10:12:55;3.88;;;2.15;;
48361;SDS011;34510;51.888;5.670;2022-08-05T10:17:21;3.40;;;1.13;;
48361;SDS011;34510;51.888;5.670;2022-08-05T10:19:40;3.60;;;1.50;;
48361;SDS011;34510;51.888;5.670;2022-08-05T10:22:02;1.15;;;1.05;;
48361;SDS011;34510;51.888;5.670;2022-08-05T10:24:04;2.15;;;1.48;;
48361;SDS011;34510;51.888;5.670;2022-08-05T10:26:11;1.27;;;1.05;;
48361;SDS011;34510;51.888;5.670;2022-08-05T10:28:15;4.60;;;0.90;;
48361;SDS011;34510;51.888;5.670;2022-08-05T10:30:29;2.92;;;1.38;;
48361;SDS011;34510;51.888;5.670;2022-08-05T10:32:53;2.95;;;1.10;;
48361;SDS011;34510;51.888;5.670;2022-08-05T10:35:03;1.65;;;0.90;;
48361;SDS011;34510;51.888;5.670;2022-08-05T10:37:05;3.83;;;0.93;;
48361;SDS011;34510;51.888;5.670;2022-08-05T10:39:11;0.70;;;0.70;;
48361;SDS011;34510;51.888;5.670;2022-08-05T10:41:59;2.30;;;1.08;;
48361;SDS011;34510;51.888;5.670;2022-08-05T10:46:13;1.02;;;0.70;;
48361;SDS011;34510;51.888;5.670;2022-08-05T10:48:36;0.77;;;0.60;;
48361;SDS011;34510;51.888;5.670;2022-08-05T10:51:03;3.88;;;1.17;;
48361;SDS011;34510;51.888;5.670;2022-08-05T10:53:36;4.32;;;0.75;;
48361;SDS011;34510;51.888;5.670;2022-08-05T10:56:00;1.80;;;0.85;;
48361;SDS011;34510;51.888;5.670;2022-08-05T10:58:26;2.95;;;0.90;;
48361;SDS011;34510;51.888;5.670;2022-08-05T11:05:25;1.33;;;0.80;;
48361;SDS011;34510;51.888;5.670;2022-08-05T11:07:32;2.17;;;0.70;;
48361;SDS011;34510;51.888;5.670;2022-08-05T11:09:55;3.22;;;1.10;;
48361;SDS011;34510;51.888;5.670;2022-08-05T11:19:47;0.65;;;0.50;;
48361;SDS011;34510;51.888;5.670;2022-08-05T11:22:55;2.43;;;0.83;;
48361;SDS011;34510;51.888;5.670;2022-08-05T11:25:25;2.63;;;1.00;;
48361;SDS011;34510;51.888;5.670;2022-08-05T11:27:49;1.20;;;0.55;;
48361;SDS011;34510;51.888;5.670;2022-08-05T11:30:00;1.40;;;0.98;;
48361;SDS011;34510;51.888;5.670;2022-08-05T11:32:21;1.85;;;0.55;;
48361;SDS011;34510;51.888;5.670;2022-08-05T11:34:41;1.20;;;0.90;;
48361;SDS011;34510;51.888;5.670;2022-08-05T11:36:52;1.90;;;1.45;;
48361;SDS011;34510;51.888;5.670;2022-08-05T11:38:54;5.07;;;0.88;;
48361;SDS011;34510;51.888;5.670;2022-08-05T11:40:59;0.60;;;0.60;;
48361;SDS011;34510;51.888;5.670;2022-08-05T11:43:22;1.58;;;0.80;;
48361;SDS011;34510;51.888;5.670;2022-08-05T11:45:47;3.10;;;0.75;;
48361;SDS011;34510;51.888;5.670;2022-08-05T11:48:09;5.25;;;0.90;;
48361;SDS011;34510;51.888;5.670;2022-08-05T11:50:11;3.38;;;0.60;;
48361;SDS011;34510;51.888;5.670;2022-08-05T11:52:21;2.38;;;1.23;;
48361;SDS011;34510;51.888;5.670;2022-08-05T11:54:30;4.93;;;0.70;;
48361;SDS011;34510;51.888;5.670;2022-08-05T11:56:46;3.65;;;0.80;;
48361;SDS011;34510;51.888;5.670;2022-08-05T11:58:51;3.08;;;0.85;;
48361;SDS011;34510;51.888;5.670;2022-08-05T12:01:27;3.47;;;0.90;;
48361;SDS011;34510;51.888;5.670;2022-08-05T12:03:22;3.20;;;0.80;;
48361;SDS011;34510;51.888;5.670;2022-08-05T12:05:32;0.77;;;0.77;;
48361;SDS011;34510;51.888;5.670;2022-08-05T12:07:40;5.85;;;0.82;;
48361;SDS011;34510;51.888;5.670;2022-08-05T12:10:02;1.42;;;0.55;;
48361;SDS011;34510;51.888;5.670;2022-08-05T12:12:10;3.03;;;1.08;;
48361;SDS011;34510;51.888;5.670;2022-08-05T12:14:11;3.75;;;1.00;;
48361;SDS011;34510;51.888;5.670;2022-08-05T12:16:16;2.50;;;1.30;;
48361;SDS011;34510;51.888;5.670;2022-08-05T12:18:26;2.30;;;0.55;;
48361;SDS011;34510;51.888;5.670;2022-08-05T12:20:33;0.93;;;0.70;;
48361;SDS011;34510;51.888;5.670;2022-08-05T12:22:38;1.45;;;0.80;;
48361;SDS011;34510;51.888;5.670;2022-08-05T12:24:47;1.30;;;0.95;;
48361;SDS011;34510;51.888;5.670;2022-08-05T12:26:51;3.95;;;0.85;;
48361;SDS011;34510;51.888;5.670;2022-08-05T12:28:54;0.60;;;0.60;;
48361;SDS011;34510;51.888;5.670;2022-08-05T12:30:56;2.42;;;0.65;;
48361;SDS011;34510;51.888;5.670;2022-08-05T12:33:02;1.50;;;0.60;;
48361;SDS011;34510;51.888;5.670;2022-08-05T12:35:24;3.60;;;0.70;;
48361;SDS011;34510;51.888;5.670;2022-08-05T12:37:41;5.30;;;0.90;;
48361;SDS011;34510;51.888;5.670;2022-08-05T12:39:46;1.92;;;0.95;;
48361;SDS011;34510;51.888;5.670;2022-08-05T12:41:56;3.85;;;1.05;;
48361;SDS011;34510;51.888;5.670;2022-08-05T12:44:04;1.73;;;0.70;;
48361;SDS011;34510;51.888;5.670;2022-08-05T12:46:27;0.95;;;0.73;;
48361;SDS011;34510;51.888;5.670;2022-08-05T12:48:37;2.60;;;0.80;;
48361;SDS011;34510;51.888;5.670;2022-08-05T12:50:41;2.08;;;0.80;;
48361;SDS011;34510;51.888;5.670;2022-08-05T12:52:54;2.25;;;0.73;;
48361;SDS011;34510;51.888;5.670;2022-08-05T12:54:58;0.70;;;0.70;;
48361;SDS011;34510;51.888;5.670;2022-08-05T12:57:01;1.58;;;0.93;;
48361;SDS011;34510;51.888;5.670;2022-08-05T13:01:24;0.80;;;0.80;;
48361;SDS011;34510;51.888;5.670;2022-08-05T13:03:46;2.63;;;2.30;;
48361;SDS011;34510;51.888;5.670;2022-08-05T13:05:52;0.70;;;0.70;;
48361;SDS011;34510;51.888;5.670;2022-08-05T13:07:55;3.45;;;0.80;;
48361;SDS011;34510;51.888;5.670;2022-08-05T13:10:01;4.50;;;0.82;;
48361;SDS011;34510;51.888;5.670;2022-08-05T13:12:04;3.67;;;0.82;;
48361;SDS011;34510;51.888;5.670;2022-08-05T13:14:14;3.63;;;1.05;;
48361;SDS011;34510;51.888;5.670;2022-08-05T13:16:46;9.02;;;1.40;;
48361;SDS011;34510;51.888;5.670;2022-08-05T13:18:51;4.88;;;1.08;;
48361;SDS011;34510;51.888;5.670;2022-08-05T13:20:58;0.57;;;0.55;;
48361;SDS011;34510;51.888;5.670;2022-08-05T13:23:01;0.85;;;0.82;;
48361;SDS011;34510;51.888;5.670;2022-08-05T13:25:09;1.90;;;0.70;;
48361;SDS011;34510;51.888;5.670;2022-08-05T13:27:29;3.10;;;1.48;;
48361;SDS011;34510;51.888;5.670;2022-08-05T13:29:38;6.30;;;1.23;;
48361;SDS011;34510;51.888;5.670;2022-08-05T13:31:59;5.85;;;1.95;;
48361;SDS011;34510;51.888;5.670;2022-08-05T13:34:05;5.38;;;0.73;;
48361;SDS011;34510;51.888;5.670;2022-08-05T13:36:26;0.85;;;0.85;;
48361;SDS011;34510;51.888;5.670;2022-08-05T13:38:29;1.42;;;0.75;;
48361;SDS011;34510;51.888;5.670;2022-08-05T13:40:42;4.97;;;0.90;;
48361;SDS011;34510;51.888;5.670;2022-08-05T13:42:52;1.38;;;0.70;;
48361;SDS011;34510;51.888;5.670;2022-08-05T13:44:56;2.40;;;0.95;;